createdAt,value
2022-11-13T00:04:52.619Z,13.77
2022-11-13T00:10:12.888Z,12.38
2022-11-13T00:15:33.160Z,13.02
2022-11-13T00:20:53.254Z,11.77
2022-11-13T00:26:16.518Z,11.52
2022-11-13T00:31:36.556Z,12.50
2022-11-13T00:36:56.944Z,11.77
2022-11-13T00:42:17.018Z,11.23
2022-11-13T00:47:37.206Z,10.67
2022-11-13T00:52:57.397Z,11.45
2022-11-13T00:58:18.512Z,10.40
2022-11-13T01:03:38.849Z,10.27
2022-11-13T01:08:59.879Z,9.60
2022-11-13T01:14:20.079Z,9.95
2022-11-13T01:19:40.436Z,9.40
2022-11-13T01:25:00.539Z,9.65
2022-11-13T01:30:20.470Z,9.15
2022-11-13T01:35:40.496Z,9.07
2022-11-13T01:41:00.672Z,9.00
2022-11-13T01:46:31.475Z,8.90
2022-11-13T01:51:54.806Z,9.10
2022-11-13T01:57:16.003Z,8.18
2022-11-13T02:02:36.653Z,8.03
2022-11-13T02:07:56.725Z,8.37
2022-11-13T02:13:17.174Z,7.77
2022-11-13T02:18:38.512Z,7.37
2022-11-13T02:24:36.816Z,7.90
2022-11-13T02:29:58.024Z,7.50
2022-11-13T02:35:33.022Z,7.85
2022-11-13T02:40:53.296Z,6.75
2022-11-13T02:46:13.803Z,6.93
2022-11-13T02:51:33.747Z,6.85
2022-11-13T02:56:53.635Z,6.72
2022-11-13T03:02:13.637Z,7.40
2022-11-13T03:07:33.618Z,7.40
2022-11-13T03:12:54.061Z,7.30
2022-11-13T03:18:14.428Z,7.07
2022-11-13T03:23:34.865Z,7.33
2022-11-13T03:28:55.361Z,8.07
2022-11-13T03:34:15.645Z,7.13
2022-11-13T03:39:35.886Z,7.45
2022-11-13T03:44:55.992Z,7.40
2022-11-13T03:50:16.239Z,7.47
2022-11-13T03:55:36.719Z,6.80
2022-11-13T04:00:56.788Z,6.97
2022-11-13T04:06:17.501Z,7.53
2022-11-13T04:11:37.448Z,7.20
2022-11-13T04:16:57.588Z,7.73
2022-11-13T04:22:17.808Z,7.80
2022-11-13T04:27:38.131Z,7.17
2022-11-13T04:32:58.334Z,7.23
2022-11-13T04:38:18.733Z,8.17
2022-11-13T04:43:38.872Z,6.90
2022-11-13T04:48:59.225Z,7.03
2022-11-13T04:54:21.999Z,6.87
2022-11-13T04:59:44.379Z,7.07
2022-11-13T05:05:08.190Z,6.93
2022-11-13T05:10:28.503Z,5.93
2022-11-13T05:15:48.742Z,6.37
2022-11-13T05:21:09.589Z,7.20
2022-11-13T05:26:29.803Z,6.57
2022-11-13T05:31:50.123Z,6.73
2022-11-13T05:37:10.430Z,6.70
2022-11-13T05:42:30.591Z,6.40
2022-11-13T05:47:50.934Z,7.03
2022-11-13T05:53:11.116Z,7.23
2022-11-13T05:58:31.514Z,6.30
2022-11-13T06:03:52.380Z,6.50
2022-11-13T06:09:14.640Z,6.57
2022-11-13T06:14:34.886Z,6.27
2022-11-13T06:19:55.139Z,6.67
2022-11-13T06:25:15.352Z,6.40
2022-11-13T06:30:35.522Z,6.10
2022-11-13T06:35:55.453Z,5.67
2022-11-13T06:41:17.687Z,6.37
2022-11-13T06:46:37.568Z,6.93
2022-11-13T06:51:57.766Z,6.93
2022-11-13T06:57:18.047Z,6.70
2022-11-13T07:02:37.992Z,6.77
2022-11-13T07:07:58.168Z,6.17
2022-11-13T07:13:18.372Z,6.77
2022-11-13T07:18:38.798Z,6.23
2022-11-13T07:23:58.823Z,6.43
2022-11-13T07:29:19.065Z,6.77
2022-11-13T07:34:39.242Z,5.57
2022-11-13T07:39:59.475Z,5.67
2022-11-13T07:45:19.724Z,6.10
2022-11-13T07:50:40.151Z,6.00
2022-11-13T07:56:02.183Z,6.20
2022-11-13T08:01:22.708Z,5.78
2022-11-13T08:06:42.640Z,5.93
2022-11-13T08:12:02.926Z,6.03
2022-11-13T08:17:23.101Z,5.83
2022-11-13T08:22:43.408Z,5.70
2022-11-13T08:28:05.546Z,6.27
2022-11-13T08:33:27.879Z,5.70
2022-11-13T08:38:48.327Z,5.77
2022-11-13T08:44:08.835Z,6.10
2022-11-13T08:49:28.822Z,5.73
2022-11-13T08:54:48.756Z,6.20
2022-11-13T09:00:09.535Z,5.55
2022-11-13T09:05:29.615Z,5.67
2022-11-13T09:10:49.801Z,6.00
2022-11-13T09:16:10.179Z,6.60
2022-11-13T09:21:30.516Z,6.17
2022-11-13T09:26:50.820Z,5.90
2022-11-13T09:32:11.044Z,6.38
2022-11-13T09:37:32.620Z,6.40
2022-11-13T09:42:52.654Z,6.80
2022-11-13T09:48:26.732Z,6.90
2022-11-13T09:53:46.932Z,6.57
2022-11-13T09:59:20.767Z,6.50
2022-11-13T10:04:58.274Z,5.83
2022-11-13T10:11:00.336Z,6.90
2022-11-13T10:16:40.683Z,6.30
2022-11-13T10:22:48.475Z,6.28
2022-11-13T10:28:48.292Z,6.35
2022-11-13T10:33:57.342Z,6.47
2022-11-13T10:39:17.634Z,6.43
2022-11-13T10:44:37.908Z,6.25
2022-11-13T10:50:09.906Z,5.93
2022-11-13T10:55:39.680Z,6.22
2022-11-13T11:00:59.738Z,6.20
2022-11-13T11:06:56.318Z,6.00
2022-11-13T11:12:15.889Z,6.38
2022-11-13T11:17:41.463Z,6.70
2022-11-13T11:23:18.437Z,7.20
2022-11-13T11:29:06.187Z,6.90
2022-11-13T11:34:39.020Z,6.45
2022-11-13T11:40:14.756Z,7.07
2022-11-13T11:45:53.873Z,7.85
2022-11-13T11:51:32.679Z,7.07
2022-11-13T11:56:58.221Z,6.72
2022-11-13T12:02:27.374Z,7.82
2022-11-13T12:08:05.889Z,7.72
2022-11-13T12:13:42.986Z,7.50
2022-11-13T12:19:06.274Z,8.60
2022-11-13T12:24:26.219Z,9.88
2022-11-13T12:29:55.462Z,9.05
2022-11-13T12:35:20.964Z,9.25
2022-11-13T12:40:56.197Z,10.25
2022-11-13T12:46:16.734Z,9.27
2022-11-13T12:51:41.081Z,9.20
2022-11-13T12:57:13.406Z,9.77
2022-11-13T13:03:11.515Z,9.30
2022-11-13T13:08:41.772Z,9.27
2022-11-13T13:14:31.364Z,10.00
2022-11-13T13:20:24.529Z,10.50
2022-11-13T13:25:44.792Z,9.60
2022-11-13T13:31:08.235Z,10.02
2022-11-13T13:36:44.576Z,10.40
2022-11-13T13:42:36.807Z,10.57
2022-11-13T13:47:57.569Z,10.55
2022-11-13T13:53:26.924Z,11.35
2022-11-13T13:58:47.493Z,11.43
2022-11-13T14:04:22.391Z,11.02
2022-11-13T14:09:42.719Z,11.05
2022-11-13T14:15:23.669Z,11.25
2022-11-13T14:20:49.112Z,11.98
2022-11-13T14:26:11.817Z,11.82
2022-11-13T14:31:34.586Z,13.32
2022-11-13T14:36:54.678Z,12.55
2022-11-13T14:42:21.826Z,14.15
2022-11-13T14:47:42.618Z,13.07
2022-11-13T14:53:09.980Z,13.10
2022-11-13T14:58:32.543Z,13.80
2022-11-13T15:03:52.963Z,13.55
2022-11-13T15:09:15.923Z,13.77
2022-11-13T15:14:37.507Z,13.77
2022-11-13T15:19:57.502Z,13.75
2022-11-13T15:25:21.765Z,14.82
2022-11-13T15:30:42.304Z,13.55
2022-11-13T15:36:02.513Z,14.60
2022-11-13T15:41:24.812Z,15.23
2022-11-13T15:46:45.412Z,14.68
2022-11-13T15:52:05.382Z,15.50
2022-11-13T15:57:27.760Z,14.85
2022-11-13T16:02:51.839Z,15.98
2022-11-13T16:08:13.841Z,15.25
2022-11-13T16:13:34.200Z,15.18
2022-11-13T16:18:59.839Z,16.88
2022-11-13T16:24:24.068Z,15.93
2022-11-13T16:29:44.815Z,17.00
2022-11-13T16:35:05.488Z,17.15
2022-11-13T16:40:26.597Z,17.33
2022-11-13T16:45:46.669Z,17.52
2022-11-13T16:51:06.754Z,17.73
2022-11-13T16:56:29.192Z,18.55
2022-11-13T17:01:54.479Z,17.95
2022-11-13T17:07:15.396Z,18.40
2022-11-13T17:12:35.597Z,19.08
2022-11-13T17:17:59.838Z,18.20
2022-11-13T17:23:19.798Z,18.35
2022-11-13T17:28:40.370Z,18.10
2022-11-13T17:34:00.828Z,18.52
2022-11-13T17:39:21.696Z,19.10
2022-11-13T17:44:41.766Z,18.77
2022-11-13T17:50:07.163Z,18.90
2022-11-13T17:55:27.553Z,18.45
2022-11-13T18:00:47.908Z,19.67
2022-11-13T18:06:12.853Z,19.90
2022-11-13T18:11:34.018Z,19.77
2022-11-13T18:16:54.178Z,19.30
2022-11-13T18:22:14.951Z,19.50
2022-11-13T18:27:36.514Z,19.60
2022-11-13T18:32:56.883Z,19.77
2022-11-13T18:38:17.087Z,18.05
2022-11-13T18:43:37.803Z,18.75
2022-11-13T18:48:59.165Z,19.65
2022-11-13T18:54:20.474Z,18.30
2022-11-13T18:59:40.961Z,19.88
2022-11-13T19:05:01.102Z,19.05
2022-11-13T19:10:21.322Z,18.98
2022-11-13T19:15:41.580Z,19.38
2022-11-13T19:21:21.709Z,18.60
2022-11-13T19:26:42.356Z,19.45
2022-11-13T19:32:02.368Z,18.75
2022-11-13T19:37:22.447Z,18.25
2022-11-13T19:42:42.833Z,19.20
2022-11-13T19:48:02.780Z,19.30
2022-11-13T19:53:22.766Z,20.17
2022-11-13T19:58:44.460Z,17.75
2022-11-13T20:04:05.599Z,19.40
2022-11-13T20:09:25.897Z,19.90
2022-11-13T20:14:46.088Z,19.13
2022-11-13T20:20:06.808Z,19.50
2022-11-13T20:25:28.283Z,19.13
2022-11-13T20:30:48.339Z,18.73
2022-11-13T20:36:08.667Z,18.83
2022-11-13T20:41:28.799Z,18.67
2022-11-13T20:46:49.068Z,18.33
2022-11-13T20:52:09.781Z,18.20
2022-11-13T20:57:29.955Z,18.13
2022-11-13T21:02:53.214Z,17.35
2022-11-13T21:08:13.225Z,17.85
2022-11-13T21:13:34.485Z,16.88
2022-11-13T21:18:58.576Z,17.70
2022-11-13T21:24:18.650Z,16.98
2022-11-13T21:29:39.072Z,17.02
2022-11-13T21:34:59.350Z,16.65
2022-11-13T21:40:19.605Z,16.02
2022-11-13T21:45:39.931Z,15.80
2022-11-13T21:51:00.159Z,15.23
2022-11-13T21:56:20.534Z,14.85
2022-11-13T22:01:40.708Z,14.85
2022-11-13T22:07:00.916Z,15.35
2022-11-13T22:12:24.090Z,14.88
2022-11-13T22:17:45.087Z,14.90
2022-11-13T22:23:05.834Z,15.18
2022-11-13T22:28:25.749Z,15.15
2022-11-13T22:33:48.951Z,14.77
2022-11-13T22:39:10.861Z,15.80
2022-11-13T22:44:45.748Z,14.40
2022-11-13T22:50:11.417Z,13.68
2022-11-13T22:55:31.428Z,13.82
2022-11-13T23:00:51.792Z,13.77
2022-11-13T23:06:13.018Z,13.88
2022-11-13T23:11:37.850Z,14.13
2022-11-13T23:16:57.826Z,13.90
2022-11-13T23:22:17.851Z,13.85
2022-11-13T23:27:38.251Z,13.55
2022-11-13T23:32:58.553Z,14.23
2022-11-13T23:38:18.771Z,14.13
2022-11-13T23:49:18.730Z,13.75
2022-11-13T23:54:38.908Z,13.13
2022-11-13T23:59:58.832Z,13.27
